ワシントン/ダレス の空港の天気 - METARとTAF

ワシントン・ダレス国際空港 ( KIAD / IAD ) - アメリカ バージニア州ダレス
飛行場実況気象(Metar)
観測時間11/30 12:52 EST (11/30 17:52 UTC)
風向・風速南南西 9m/s 瞬間風速15m/s
視程10km以上
天気現象
全天を覆う雲 雲底高度 400m
気温12.8℃
湿度89%
気圧1007.6hPa
METARKIAD 301752Z 20018G29KT 10SM OVC013 13/11 A2975 RMK AO2 PK WND 19030/1718 SLP076 60010 T01280111 10128 20083 58028
過去の天気等 Google飛行場航空写真 Wunderground天気予報

過去48時間のMETAR

飛行場予報(TAF)
発表時間: 11/30 12:32 EST (11/30 17:32 UTC)
予報対象時間: 30日13時 EST ~ 1日19時 EST
風向・風速南南西 9m/s 瞬間風速 14m/s
視程10km以上
天気現象弱いしゅう雨
全天の8割程度の雲 雲底高度 460m
全天を覆う雲 雲底高度 1520m
30日15時 EST から
風向・風速西北西 9m/s 瞬間風速 16m/s
視程10km以上
全天の4割程度の雲 雲底高度 1070m
30日22時 EST から
風向・風速西北西 6m/s 瞬間風速 12m/s
視程10km以上
なし
1日5時 EST から
風向・風速西北西 4m/s 瞬間風速 8m/s
視程10km以上
なし
1日10時 EST から
風向・風速北西 6m/s 瞬間風速 11m/s
視程10km以上
なし
1日15時 EST から
風向・風速西北西 4m/s
視程10km以上
少しの雲 雲底高度 7620m
KIAD 301732Z 3018/0124 20017G28KT 6SM -SHRA BKN015 OVC050
FM302000 29018G32KT P6SM SCT035
FM010300 29012G24KT P6SM SKC
FM011000 29008G16KT P6SM SKC
FM011500 31012G22KT P6SM SKC
FM012000 30008KT P6SM FEW250